Terminal Aerodrome Forecast
Issued by NWS Nashville, TN

Home | Current Version | Previous Version | Text Only | Print | Product List | Glossary On
Versions: 1 2 3 4 5 6 7 8 9 10 11 12 13 14 15 16 17 18 19
297
FTUS44 KOHX 090629 AAA
TAFCSV
TAF AMD
KCSV 090629Z 0906/1006 28011KT 5SM -SN BR BKN018 OVC025
      TEMPO 0906/0910 2SM -SN BR OVC015
     FM091100 30008G18KT 3SM -SN BR OVC015
     FM100400 30009G18KT P6SM OVC025=

USA.gov is the U.S. government's official web portal to all federal, state and local government web resources and services.